Time;durP1;ratioP1;P1;durP2;ratioP2;P2;SDS_P1;SDS_P2;PMS_P1;PMS_P2;Temp;Humidity;BMP_temperature;BMP_pressure;BME280_temperature;BME280_humidity;BME280_pressure;Samples;Min_cycle;Max_cycle;Signal;HPM_P1;HPM_P2
2022/08/19 00:01:43;;;;;;;;;;;23.00;57.30;;;;;;5022075;28;20251;-85
2022/08/19 00:04:09;;;;;;;;;;;22.90;57.60;;;;;;5023523;28;19909;-87
2022/08/19 00:06:37;;;;;;;;;;;22.90;57.80;;;;;;5021703;28;19914;-86
2022/08/19 00:09:03;;;;;;;;;;;22.90;57.80;;;;;;5024868;28;19913;-86
2022/08/19 00:11:29;;;;;;;;;;;22.80;58.10;;;;;;5024068;28;20498;-88
2022/08/19 00:13:56;;;;;;;;;;;22.80;58.20;;;;;;5004948;28;19905;-88
2022/08/19 00:16:22;;;;;;;;;;;22.80;58.30;;;;;;5013997;28;19905;-86
2022/08/19 00:18:48;;;;;;;;;;;22.70;58.40;;;;;;5034938;28;19944;-85
2022/08/19 00:21:14;;;;;;;;;;;22.70;58.70;;;;;;5022525;28;19992;-87
2022/08/19 00:23:40;;;;;;;;;;;22.70;58.60;;;;;;5034846;28;19916;-87
2022/08/19 00:26:06;;;;;;;;;;;22.60;58.70;;;;;;5028978;28;19913;-86
2022/08/19 00:28:32;;;;;;;;;;;22.60;58.90;;;;;;5031625;28;19909;-87
2022/08/19 00:30:58;;;;;;;;;;;22.60;59.10;;;;;;5036107;28;19949;-86
2022/08/19 00:33:24;;;;;;;;;;;22.50;59.10;;;;;;5032738;28;19909;-86
2022/08/19 00:35:50;;;;;;;;;;;22.50;59.10;;;;;;5014677;28;19966;-83
2022/08/19 00:38:15;;;;;;;;;;;22.40;59.10;;;;;;5034699;28;19920;-87
2022/08/19 00:40:46;;;;;;;;;;;22.40;59.30;;;;;;5030316;28;19916;-85
2022/08/19 00:43:15;;;;;;;;;;;22.40;59.40;;;;;;5020709;28;19913;-87
2022/08/19 00:45:43;;;;;;;;;;;22.40;59.40;;;;;;5026616;28;19917;-86
2022/08/19 00:48:09;;;;;;;;;;;22.30;59.50;;;;;;5021350;28;19931;-88
2022/08/19 00:50:35;;;;;;;;;;;22.30;59.70;;;;;;5016802;28;20389;-87
2022/08/19 00:53:03;;;;;;;;;;;22.30;59.60;;;;;;5016588;28;19905;-86
2022/08/19 00:55:30;;;;;;;;;;;22.30;59.60;;;;;;4995607;28;19951;-85
2022/08/19 00:58:04;;;;;;;;;;;22.20;59.70;;;;;;5017995;28;19921;-86
2022/08/19 01:00:31;;;;;;;;;;;22.20;59.70;;;;;;4997688;28;20441;-87
2022/08/19 01:02:57;;;;;;;;;;;22.20;59.60;;;;;;5001827;28;19905;-88
2022/08/19 01:05:27;;;;;;;;;;;22.10;59.70;;;;;;5023872;28;20028;-87
2022/08/19 01:07:56;;;;;;;;;;;22.10;59.90;;;;;;5015529;28;19905;-87
2022/08/19 01:10:24;;;;;;;;;;;22.10;59.90;;;;;;5007719;28;19912;-88
2022/08/19 01:12:50;;;;;;;;;;;22.00;59.90;;;;;;5020558;28;19912;-86
2022/08/19 01:15:17;;;;;;;;;;;22.00;60.10;;;;;;5015756;28;19905;-86
2022/08/19 01:17:43;;;;;;;;;;;21.90;60.20;;;;;;5019392;28;19909;-86
2022/08/19 01:20:13;;;;;;;;;;;21.90;60.40;;;;;;5015750;28;20359;-86
2022/08/19 01:22:42;;;;;;;;;;;21.80;60.40;;;;;;5014339;28;20377;-88
2022/08/19 01:25:08;;;;;;;;;;;21.80;60.40;;;;;;5011186;28;19949;-87
2022/08/19 01:27:43;;;;;;;;;;;21.70;60.40;;;;;;5007990;28;19949;-86
2022/08/19 01:30:09;;;;;;;;;;;21.70;60.50;;;;;;4999900;28;19972;-88
2022/08/19 01:32:35;;;;;;;;;;;21.70;60.60;;;;;;5014696;28;19906;-87
2022/08/19 01:35:02;;;;;;;;;;;21.70;60.80;;;;;;5020811;28;19928;-86
2022/08/19 01:37:29;;;;;;;;;;;21.60;60.70;;;;;;4998157;28;19975;-86
2022/08/19 01:39:54;;;;;;;;;;;21.60;60.90;;;;;;5018150;28;19955;-85
2022/08/19 01:42:21;;;;;;;;;;;21.50;60.90;;;;;;5006821;28;20287;-83
2022/08/19 01:44:47;;;;;;;;;;;21.50;61.10;;;;;;5029372;28;19912;-84
2022/08/19 01:47:13;;;;;;;;;;;21.50;61.10;;;;;;5024422;28;20005;-86
2022/08/19 01:49:38;;;;;;;;;;;21.50;61.10;;;;;;5024887;28;19959;-85
2022/08/19 01:52:05;;;;;;;;;;;21.50;61.40;;;;;;5027063;28;19906;-87
2022/08/19 01:54:31;;;;;;;;;;;21.40;61.40;;;;;;5038729;28;19916;-89
2022/08/19 01:57:01;;;;;;;;;;;21.50;61.40;;;;;;5041542;28;19981;-87
2022/08/19 01:59:27;;;;;;;;;;;21.50;61.60;;;;;;5037738;28;19910;-90
2022/08/19 02:01:54;;;;;;;;;;;21.40;61.60;;;;;;5023780;28;20275;-90
2022/08/19 02:04:20;;;;;;;;;;;21.40;61.70;;;;;;4979838;28;19957;-90
2022/08/19 02:06:46;;;;;;;;;;;21.40;61.70;;;;;;5027367;28;20367;-90
2022/08/19 02:09:12;;;;;;;;;;;21.30;61.70;;;;;;5005653;28;19905;-90
2022/08/19 02:11:37;;;;;;;;;;;21.40;61.80;;;;;;5028556;28;20314;-90
2022/08/19 02:14:05;;;;;;;;;;;21.30;61.70;;;;;;5000560;28;19955;-89
2022/08/19 02:16:32;;;;;;;;;;;21.30;61.80;;;;;;5016841;28;19933;-87
2022/08/19 02:19:00;;;;;;;;;;;21.30;62.00;;;;;;5016502;28;19905;-90
2022/08/19 02:21:26;;;;;;;;;;;21.30;61.90;;;;;;4998826;28;19928;-86
2022/08/19 02:23:51;;;;;;;;;;;21.30;61.90;;;;;;5016201;28;19905;-88
2022/08/19 02:26:18;;;;;;;;;;;21.30;61.90;;;;;;5018075;28;19913;-88
2022/08/19 02:28:44;;;;;;;;;;;21.30;62.00;;;;;;5016416;28;19960;-89
2022/08/19 02:31:10;;;;;;;;;;;21.20;62.00;;;;;;4996783;28;19909;-88
2022/08/19 02:33:36;;;;;;;;;;;21.20;62.20;;;;;;5015063;28;19906;-89
2022/08/19 02:36:04;;;;;;;;;;;21.20;62.30;;;;;;5011478;28;19920;-87
2022/08/19 02:38:29;;;;;;;;;;;21.20;62.30;;;;;;5014486;28;19905;-87
2022/08/19 02:41:03;;;;;;;;;;;21.20;62.20;;;;;;5018381;28;19905;-88
2022/08/19 02:43:29;;;;;;;;;;;21.30;62.40;;;;;;5014755;28;19916;-87
2022/08/19 02:45:55;;;;;;;;;;;21.30;62.30;;;;;;5014680;28;20390;-88
2022/08/19 02:48:22;;;;;;;;;;;21.30;62.30;;;;;;5010223;28;19905;-88
2022/08/19 02:50:50;;;;;;;;;;;21.30;62.20;;;;;;5001688;28;19905;-90
2022/08/19 02:53:16;;;;;;;;;;;21.30;62.30;;;;;;5024363;28;19906;-89
2022/08/19 02:55:43;;;;;;;;;;;21.30;62.40;;;;;;5026421;28;19912;-86
2022/08/19 02:58:09;;;;;;;;;;;21.20;62.40;;;;;;5025392;28;19924;-86
2022/08/19 03:00:34;;;;;;;;;;;21.20;62.50;;;;;;5019629;28;19905;-89
2022/08/19 03:03:00;;;;;;;;;;;21.20;62.60;;;;;;5021566;28;19975;-88
2022/08/19 03:05:27;;;;;;;;;;;21.10;62.90;;;;;;5011511;28;20012;-87
2022/08/19 03:07:52;;;;;;;;;;;21.10;62.80;;;;;;5002501;28;20079;-86
2022/08/19 03:10:18;;;;;;;;;;;21.10;62.80;;;;;;5040455;28;19905;-86
2022/08/19 03:12:45;;;;;;;;;;;21.10;62.80;;;;;;5045608;28;19949;-87
2022/08/19 03:15:32;;;;;;;;;;;21.10;63.00;;;;;;5017075;28;19905;-87
2022/08/19 03:17:58;;;;;;;;;;;21.10;63.10;;;;;;5020394;28;19964;-88
2022/08/19 03:20:25;;;;;;;;;;;21.00;63.20;;;;;;5025711;28;19905;-89
2022/08/19 03:22:51;;;;;;;;;;;21.00;63.30;;;;;;5018974;28;19912;-89
2022/08/19 03:25:16;;;;;;;;;;;21.00;63.30;;;;;;5020414;28;19917;-89
2022/08/19 03:27:43;;;;;;;;;;;21.00;63.60;;;;;;5002929;28;19960;-89
2022/08/19 03:30:09;;;;;;;;;;;20.90;63.70;;;;;;5021676;28;20282;-88
2022/08/19 03:32:35;;;;;;;;;;;21.00;63.70;;;;;;5019280;28;19992;-90
2022/08/19 03:35:02;;;;;;;;;;;21.00;63.70;;;;;;5019301;28;20330;-90
2022/08/19 03:37:28;;;;;;;;;;;21.00;63.70;;;;;;5001908;28;20220;-90
2022/08/19 03:39:54;;;;;;;;;;;21.00;63.70;;;;;;5020143;28;20412;-88
2022/08/19 03:42:20;;;;;;;;;;;21.00;63.90;;;;;;5039424;28;19913;-88
2022/08/19 03:44:45;;;;;;;;;;;21.00;63.90;;;;;;5033860;28;20059;-89
2022/08/19 03:47:15;;;;;;;;;;;21.00;64.00;;;;;;5019388;28;19921;-88
2022/08/19 03:49:41;;;;;;;;;;;21.10;63.90;;;;;;5007568;28;19905;-91
2022/08/19 03:52:07;;;;;;;;;;;21.10;63.90;;;;;;5027221;28;19912;-90
2022/08/19 03:54:37;;;;;;;;;;;21.20;63.80;;;;;;5004080;28;19909;-87
2022/08/19 03:57:04;;;;;;;;;;;21.20;63.80;;;;;;5027337;28;19941;-90
2022/08/19 03:59:31;;;;;;;;;;;21.30;63.60;;;;;;5002256;28;19910;-90
2022/08/19 04:01:58;;;;;;;;;;;21.30;63.60;;;;;;5034817;28;19905;-88
2022/08/19 04:04:24;;;;;;;;;;;21.30;63.50;;;;;;5032682;28;19906;-87
2022/08/19 04:06:51;;;;;;;;;;;21.30;63.40;;;;;;5033346;28;19975;-88
2022/08/19 04:09:17;;;;;;;;;;;21.40;63.50;;;;;;5006978;28;19952;-89
2022/08/19 04:11:44;;;;;;;;;;;21.40;63.40;;;;;;5011094;28;19912;-90
2022/08/19 04:14:11;;;;;;;;;;;21.40;63.50;;;;;;5026488;28;20004;-88
2022/08/19 04:16:37;;;;;;;;;;;21.40;63.70;;;;;;5003938;28;20260;-88
2022/08/19 04:19:04;;;;;;;;;;;21.50;63.60;;;;;;5019674;28;19910;-89
2022/08/19 04:21:29;;;;;;;;;;;21.50;63.30;;;;;;5002236;28;20418;-88
2022/08/19 04:23:56;;;;;;;;;;;21.50;64.10;;;;;;5019302;28;19905;-89
2022/08/19 04:26:31;;;;;;;;;;;21.50;63.50;;;;;;5003110;28;19917;-89
2022/08/19 04:28:57;;;;;;;;;;;21.60;63.40;;;;;;5029175;28;19905;-90
2022/08/19 04:31:25;;;;;;;;;;;21.60;63.50;;;;;;5026037;28;19916;-88
2022/08/19 04:33:56;;;;;;;;;;;21.70;63.30;;;;;;5028272;28;19929;-89
2022/08/19 04:36:25;;;;;;;;;;;21.80;63.00;;;;;;5019366;28;19905;-88
2022/08/19 04:38:53;;;;;;;;;;;21.90;62.80;;;;;;5027104;28;19905;-86
2022/08/19 04:44:03;;;;;;;;;;;22.30;62.10;;;;;;5009214;28;19920;-90
2022/08/19 04:46:31;;;;;;;;;;;22.50;61.60;;;;;;5006887;28;19960;-89
2022/08/19 04:48:59;;;;;;;;;;;22.60;61.20;;;;;;5015205;28;20351;-87
2022/08/19 04:51:26;;;;;;;;;;;22.80;61.00;;;;;;5022334;28;19909;-87
2022/08/19 04:53:53;;;;;;;;;;;22.90;60.60;;;;;;5017261;28;20282;-90
2022/08/19 04:56:26;;;;;;;;;;;23.00;60.00;;;;;;5011739;28;19927;-90
2022/08/19 04:58:52;;;;;;;;;;;23.00;60.10;;;;;;5027270;28;20341;-89
2022/08/19 05:01:19;;;;;;;;;;;23.20;60.20;;;;;;5026172;28;19905;-88
2022/08/19 05:03:45;;;;;;;;;;;23.70;59.80;;;;;;5001076;28;19905;-90
2022/08/19 05:06:11;;;;;;;;;;;24.30;58.90;;;;;;5029971;28;19913;-89
2022/08/19 05:08:39;;;;;;;;;;;24.70;57.70;;;;;;5014080;28;19905;-89
2022/08/19 05:11:10;;;;;;;;;;;24.80;56.50;;;;;;5016121;28;19905;-88
2022/08/19 05:13:36;;;;;;;;;;;24.50;56.00;;;;;;5027780;28;19959;-87
2022/08/19 05:16:02;;;;;;;;;;;24.10;57.00;;;;;;5018732;28;19906;-90
2022/08/19 05:23:59;;;;;;;;;;;24.00;57.80;;;;;;5018863;28;19915;-90
2022/08/19 05:26:25;;;;;;;;;;;24.00;57.70;;;;;;5021141;28;20004;-90
2022/08/19 05:28:52;;;;;;;;;;;24.30;57.70;;;;;;5018737;28;19906;-90
2022/08/19 05:31:18;;;;;;;;;;;24.30;57.20;;;;;;5021389;28;20329;-89
2022/08/19 05:33:43;;;;;;;;;;;24.30;57.10;;;;;;5017107;28;19958;-89
2022/08/19 05:36:09;;;;;;;;;;;24.30;57.30;;;;;;5002071;28;20643;-91
2022/08/19 05:38:35;;;;;;;;;;;24.20;57.10;;;;;;5025949;28;20004;-88
2022/08/19 05:41:06;;;;;;;;;;;24.10;57.30;;;;;;5030391;28;19909;-89
2022/08/19 05:43:32;;;;;;;;;;;24.00;57.70;;;;;;5009898;28;19904;-86
2022/08/19 05:45:58;;;;;;;;;;;23.90;57.90;;;;;;5031713;28;19959;-92
2022/08/19 05:48:23;;;;;;;;;;;23.90;58.30;;;;;;5014205;28;19905;-90
2022/08/19 05:50:50;;;;;;;;;;;23.90;58.40;;;;;;5024107;28;19916;-86
2022/08/19 05:53:17;;;;;;;;;;;24.00;58.40;;;;;;5017183;28;19958;-90
2022/08/19 05:55:43;;;;;;;;;;;24.20;57.90;;;;;;5020652;28;19916;-93
2022/08/19 05:58:08;;;;;;;;;;;24.20;57.80;;;;;;5002961;28;19921;-90
2022/08/19 06:00:38;;;;;;;;;;;24.30;57.60;;;;;;5006800;28;19906;-92
2022/08/19 06:03:04;;;;;;;;;;;24.40;57.60;;;;;;5006515;28;19905;-93
2022/08/19 06:05:30;;;;;;;;;;;24.50;57.20;;;;;;4991874;28;20056;-90
2022/08/19 06:07:56;;;;;;;;;;;24.60;57.20;;;;;;5008774;28;19919;-89
2022/08/19 06:10:22;;;;;;;;;;;24.70;57.00;;;;;;5024616;28;19905;-91
2022/08/19 06:12:48;;;;;;;;;;;25.00;56.80;;;;;;5029697;28;19905;-92
2022/08/19 06:15:14;;;;;;;;;;;25.20;56.20;;;;;;5010507;28;19909;-92
2022/08/19 06:17:41;;;;;;;;;;;25.40;55.80;;;;;;5025868;28;19951;-90
2022/08/19 06:20:09;;;;;;;;;;;25.70;55.40;;;;;;5025784;28;19912;-90
2022/08/19 06:22:42;;;;;;;;;;;25.90;54.70;;;;;;5013933;28;19916;-88
2022/08/19 06:25:09;;;;;;;;;;;26.20;54.00;;;;;;4994887;28;19901;-89
2022/08/19 06:27:35;;;;;;;;;;;26.30;53.90;;;;;;4988864;28;19946;-90
2022/08/19 06:30:01;;;;;;;;;;;26.50;53.30;;;;;;4992385;28;19913;-89
2022/08/19 06:32:30;;;;;;;;;;;26.80;52.90;;;;;;4986543;28;19917;-89
2022/08/19 06:34:56;;;;;;;;;;;26.70;52.60;;;;;;4994281;28;19950;-91
2022/08/19 06:37:22;;;;;;;;;;;26.70;52.90;;;;;;4996248;28;19910;-90
2022/08/19 06:39:48;;;;;;;;;;;27.30;52.60;;;;;;4994852;28;19909;-91
2022/08/19 06:42:16;;;;;;;;;;;27.40;51.90;;;;;;4988741;28;19918;-90
2022/08/19 06:44:42;;;;;;;;;;;27.00;51.80;;;;;;4965306;28;19906;-94
2022/08/19 06:47:09;;;;;;;;;;;26.50;52.10;;;;;;4964345;28;19914;-91
2022/08/19 06:49:35;;;;;;;;;;;26.20;53.10;;;;;;4962935;28;20409;-88
2022/08/19 06:52:01;;;;;;;;;;;25.90;53.70;;;;;;4980078;28;19941;-89
2022/08/19 06:54:28;;;;;;;;;;;25.70;53.90;;;;;;4970377;28;19906;-91
2022/08/19 06:56:53;;;;;;;;;;;25.50;54.10;;;;;;5013136;28;19917;-88
2022/08/19 06:59:20;;;;;;;;;;;25.40;54.30;;;;;;5012225;28;19933;-89
2022/08/19 07:01:48;;;;;;;;;;;25.30;54.90;;;;;;5023749;28;20285;-94
2022/08/19 07:04:17;;;;;;;;;;;25.30;55.00;;;;;;5023694;28;19906;-92
2022/08/19 07:06:43;;;;;;;;;;;25.30;54.40;;;;;;5023096;28;20235;-92
2022/08/19 07:09:10;;;;;;;;;;;25.10;54.40;;;;;;5013109;28;19909;-91
2022/08/19 07:11:35;;;;;;;;;;;25.00;54.70;;;;;;5008036;28;19960;-91
2022/08/19 07:14:02;;;;;;;;;;;24.90;55.10;;;;;;5007463;28;19913;-89
2022/08/19 07:16:28;;;;;;;;;;;24.90;55.20;;;;;;5024868;28;19959;-92
2022/08/19 07:18:54;;;;;;;;;;;25.00;55.00;;;;;;5004842;28;19959;-90
2022/08/19 07:21:21;;;;;;;;;;;25.30;54.80;;;;;;5003022;28;19949;-93
2022/08/19 07:23:48;;;;;;;;;;;25.60;54.40;;;;;;5014894;28;19905;-90
2022/08/19 07:26:25;;;;;;;;;;;26.00;53.70;;;;;;5002273;28;19921;-93
2022/08/19 07:28:50;;;;;;;;;;;26.50;53.40;;;;;;4985185;28;19905;-92
2022/08/19 07:31:18;;;;;;;;;;;27.30;52.10;;;;;;5000897;28;19952;-90
2022/08/19 07:33:44;;;;;;;;;;;27.70;50.20;;;;;;5000579;28;19910;-91
2022/08/19 07:36:12;;;;;;;;;;;28.00;50.10;;;;;;4988024;28;19909;-92
2022/08/19 07:38:41;;;;;;;;;;;28.10;49.10;;;;;;5009938;28;20005;-93
2022/08/19 07:41:18;;;;;;;;;;;28.00;49.40;;;;;;5003321;28;19963;-92
2022/08/19 07:43:45;;;;;;;;;;;28.00;49.00;;;;;;4995444;28;19913;-92
2022/08/19 07:46:13;;;;;;;;;;;28.10;49.30;;;;;;4992155;28;19914;-93
2022/08/19 07:48:40;;;;;;;;;;;28.60;48.00;;;;;;4981612;28;19917;-91
2022/08/19 07:51:08;;;;;;;;;;;29.00;47.30;;;;;;4991814;28;20001;-91
2022/08/19 07:53:37;;;;;;;;;;;29.60;46.10;;;;;;5002231;28;19909;-91
2022/08/19 07:56:04;;;;;;;;;;;29.80;45.80;;;;;;4977045;28;19910;-89
2022/08/19 07:58:31;;;;;;;;;;;30.20;45.90;;;;;;5000801;28;19982;-93
2022/08/19 08:00:59;;;;;;;;;;;30.30;45.10;;;;;;5018193;28;19949;-93
2022/08/19 08:09:10;;;;;;;;;;;30.20;45.00;;;;;;5003613;28;19909;-92
2022/08/19 08:09:11;;;;;;;;;;;30.50;44.20;;;;;;5009712;28;19957;-91
2022/08/19 08:11:39;;;;;;;;;;;30.50;44.60;;;;;;4999621;28;19906;-92
2022/08/19 08:14:05;;;;;;;;;;;31.20;44.70;;;;;;4990177;28;20421;-94
2022/08/19 08:16:37;;;;;;;;;;;32.30;43.60;;;;;;5001980;28;19905;-92
2022/08/19 08:19:06;;;;;;;;;;;32.70;42.10;;;;;;4994777;28;20290;-91
2022/08/19 08:21:32;;;;;;;;;;;32.50;41.50;;;;;;4988418;28;19906;-93
2022/08/19 08:23:58;;;;;;;;;;;32.00;41.90;;;;;;4997545;28;19910;-92
2022/08/19 08:26:30;;;;;;;;;;;31.70;42.60;;;;;;4989652;28;19914;-92
2022/08/19 08:28:56;;;;;;;;;;;31.20;43.10;;;;;;5011286;28;19895;-90
2022/08/19 08:31:21;;;;;;;;;;;31.00;43.00;;;;;;4990343;28;19910;-92
2022/08/19 08:33:47;;;;;;;;;;;31.00;43.00;;;;;;4957466;29;19906;-91
2022/08/19 08:36:16;;;;;;;;;;;30.90;42.60;;;;;;4969605;29;19907;-93
2022/08/19 08:38:42;;;;;;;;;;;30.10;43.60;;;;;;4972027;29;19894;-89
2022/08/19 08:41:31;;;;;;;;;;;29.70;44.30;;;;;;4962205;29;19890;-89
2022/08/19 08:43:58;;;;;;;;;;;29.30;44.80;;;;;;4977151;29;19938;-90
2022/08/19 08:46:27;;;;;;;;;;;29.00;45.50;;;;;;4956363;29;19979;-91
2022/08/19 08:49:12;;;;;;;;;;;28.80;46.10;;;;;;4952264;29;19941;-92
2022/08/19 08:51:47;;;;;;;;;;;28.70;45.70;;;;;;4979944;28;20016;-92
2022/08/19 08:54:14;;;;;;;;;;;28.50;46.20;;;;;;4967703;29;19910;-91
2022/08/19 08:56:42;;;;;;;;;;;28.70;45.50;;;;;;4979304;28;19913;-90
2022/08/19 08:59:24;;;;;;;;;;;29.20;45.00;;;;;;5025080;28;19909;-92
2022/08/19 09:01:49;;;;;;;;;;;29.50;44.60;;;;;;5026567;28;20017;-93
2022/08/19 09:04:16;;;;;;;;;;;30.20;44.70;;;;;;5014271;28;19906;-92
2022/08/19 09:06:49;;;;;;;;;;;31.20;43.20;;;;;;5016558;28;19913;-93
2022/08/19 09:09:18;;;;;;;;;;;31.70;41.90;;;;;;5017210;28;19932;-92
2022/08/19 09:11:56;;;;;;;;;;;31.70;42.70;;;;;;5020130;28;19909;-90
2022/08/19 09:14:22;;;;;;;;;;;32.30;42.00;;;;;;5038183;28;19897;-91
2022/08/19 09:16:49;;;;;;;;;;;32.40;40.50;;;;;;5038215;28;19910;-92
2022/08/19 09:19:17;;;;;;;;;;;31.70;40.10;;;;;;5023007;28;19897;-92
2022/08/19 09:21:45;;;;;;;;;;;31.50;41.30;;;;;;5012452;28;19893;-92
2022/08/19 09:24:12;;;;;;;;;;;32.10;41.50;;;;;;5026368;28;19906;-92
2022/08/19 09:26:38;;;;;;;;;;;32.20;40.60;;;;;;5026846;28;19941;-93
2022/08/19 09:29:05;;;;;;;;;;;31.60;40.70;;;;;;5030573;28;19912;-92
2022/08/19 09:31:32;;;;;;;;;;;31.10;41.50;;;;;;5031562;28;19893;-91
2022/08/19 09:34:00;;;;;;;;;;;30.80;42.40;;;;;;5010565;28;19912;-91
2022/08/19 09:36:28;;;;;;;;;;;31.10;42.40;;;;;;5023983;28;19905;-93
2022/08/19 09:38:55;;;;;;;;;;;31.20;41.90;;;;;;5023207;28;19905;-90
2022/08/19 09:41:22;;;;;;;;;;;31.40;41.90;;;;;;5028307;28;19917;-90
2022/08/19 09:43:51;;;;;;;;;;;31.60;41.60;;;;;;5011441;28;20351;-93
2022/08/19 09:46:19;;;;;;;;;;;32.00;41.00;;;;;;5017435;28;19909;-92
2022/08/19 09:48:48;;;;;;;;;;;31.90;40.60;;;;;;4975636;29;19910;-94
2022/08/19 09:51:17;;;;;;;;;;;;;;;;;;4971026;29;19906;-93
2022/08/19 09:53:43;;;;;;;;;;;;;;;;;;4963645;29;19906;-92
2022/08/19 09:56:09;;;;;;;;;;;32.50;40.60;;;;;;4968873;29;19933;-95
2022/08/19 09:58:35;;;;;;;;;;;;;;;;;;4982360;28;19917;-91
2022/08/19 10:01:01;;;;;;;;;;;;;;;;;;4970618;28;19917;-91
2022/08/19 10:03:29;;;;;;;;;;;;;;;;;;4988887;28;19965;-91
2022/08/19 10:05:55;;;;;;;;;;;34.90;34.10;;;;;;4972991;28;19913;-92
2022/08/19 10:08:25;;;;;;;;;;;35.20;34.90;;;;;;5005678;28;19917;-94
2022/08/19 10:10:51;;;;;;;;;;;35.80;34.40;;;;;;4985468;28;19968;-93
2022/08/19 10:13:21;;;;;;;;;;;36.30;33.20;;;;;;4941666;29;19950;-93
2022/08/19 10:15:50;;;;;;;;;;;35.50;33.10;;;;;;4941455;29;20410;-95
2022/08/19 10:18:19;;;;;;;;;;;34.80;32.20;;;;;;4947925;29;19911;-93
2022/08/19 10:20:46;;;;;;;;;;;33.80;31.90;;;;;;5012856;28;19944;-91
2022/08/19 10:23:12;;;;;;;;;;;33.30;31.50;;;;;;5022760;28;19906;-91
2022/08/19 10:25:38;;;;;;;;;;;33.20;32.00;;;;;;5022765;28;19913;-90
2022/08/19 10:28:05;;;;;;;;;;;33.00;31.40;;;;;;5008103;28;20294;-92
2022/08/19 10:30:34;;;;;;;;;;;32.20;30.90;;;;;;4995437;28;19921;-94
2022/08/19 10:33:00;;;;;;;;;;;31.40;30.60;;;;;;4992651;28;19924;-95
2022/08/19 10:35:29;;;;;;;;;;;30.30;31.40;;;;;;4969052;28;19910;-91
2022/08/19 10:37:58;;;;;;;;;;;29.50;32.40;;;;;;4996756;28;19977;-90
2022/08/19 10:40:25;;;;;;;;;;;29.10;33.40;;;;;;4966414;28;19907;-94
2022/08/19 10:42:51;;;;;;;;;;;29.10;33.70;;;;;;4965067;28;19910;-91
2022/08/19 10:45:17;;;;;;;;;;;29.20;33.80;;;;;;5007630;28;20330;-92
2022/08/19 10:47:42;;;;;;;;;;;29.20;33.90;;;;;;5025459;28;20331;-93
2022/08/19 10:52:58;;;;;;;;;;;28.80;34.20;;;;;;5011293;28;19981;-94
2022/08/19 10:58:15;;;;;;;;;;;28.40;35.40;;;;;;5025624;28;19947;-90
2022/08/19 11:00:43;;;;;;;;;;;28.40;35.50;;;;;;5003366;28;19910;-90
2022/08/19 11:03:08;;;;;;;;;;;28.30;35.90;;;;;;5018772;28;19910;-90
2022/08/19 11:05:34;;;;;;;;;;;28.10;36.40;;;;;;5016478;28;20574;-93
2022/08/19 11:08:00;;;;;;;;;;;;;;;;;;5015645;28;20424;-94
2022/08/19 11:10:26;;;;;;;;;;;;;;;;;;5015096;28;19912;-91
2022/08/19 11:12:55;;;;;;;;;;;28.00;36.60;;;;;;5030284;28;19928;-92
2022/08/19 11:15:22;;;;;;;;;;;27.70;35.40;;;;;;5014601;28;19918;-90
2022/08/19 11:17:48;;;;;;;;;;;27.60;36.00;;;;;;5021218;28;19893;-88
2022/08/19 11:20:14;;;;;;;;;;;27.40;36.40;;;;;;5045699;28;19912;-94
2022/08/19 11:22:41;;;;;;;;;;;27.40;36.70;;;;;;5023797;28;19977;-95
2022/08/19 11:25:07;;;;;;;;;;;27.70;36.80;;;;;;5019128;28;19908;-92
2022/08/19 11:27:34;;;;;;;;;;;27.80;36.60;;;;;;5017666;28;19948;-95
2022/08/19 11:30:00;;;;;;;;;;;27.70;36.60;;;;;;5014994;28;19909;-94
2022/08/19 11:32:26;;;;;;;;;;;27.70;36.50;;;;;;5011592;28;20013;-93
2022/08/19 11:34:52;;;;;;;;;;;27.60;36.60;;;;;;5026694;28;19916;-94
2022/08/19 11:37:19;;;;;;;;;;;27.60;36.90;;;;;;4990698;28;19905;-94
2022/08/19 11:39:47;;;;;;;;;;;27.60;37.00;;;;;;5021316;28;19905;-94
2022/08/19 11:44:58;;;;;;;;;;;27.40;37.30;;;;;;5025976;28;20283;-92
2022/08/19 11:47:24;;;;;;;;;;;27.40;38.20;;;;;;5030018;28;20012;-95
2022/08/19 11:49:51;;;;;;;;;;;27.40;38.50;;;;;;5026403;28;20051;-90
2022/08/19 11:52:18;;;;;;;;;;;27.40;38.20;;;;;;5009581;28;19948;-93
2022/08/19 11:54:47;;;;;;;;;;;27.30;38.70;;;;;;5008116;28;19905;-92
2022/08/19 11:57:14;;;;;;;;;;;27.20;38.90;;;;;;5008716;28;19959;-95
2022/08/19 11:59:40;;;;;;;;;;;27.10;38.30;;;;;;5012166;28;19905;-91
2022/08/19 12:02:18;;;;;;;;;;;27.10;38.80;;;;;;5015100;28;19906;-93
2022/08/19 12:04:46;;;;;;;;;;;27.00;38.70;;;;;;5026543;28;19913;-94
2022/08/19 12:07:12;;;;;;;;;;;27.00;39.40;;;;;;5025303;28;19920;-90
2022/08/19 12:09:39;;;;;;;;;;;26.90;39.80;;;;;;5027029;28;19909;-93
2022/08/19 12:12:05;;;;;;;;;;;26.90;40.30;;;;;;5009422;28;19928;-91
2022/08/19 12:14:31;;;;;;;;;;;26.80;41.40;;;;;;5023272;28;19984;-91
2022/08/19 12:16:58;;;;;;;;;;;26.70;41.80;;;;;;5024630;28;19906;-94
2022/08/19 12:19:24;;;;;;;;;;;26.60;42.20;;;;;;5008255;28;19917;-92
2022/08/19 12:21:50;;;;;;;;;;;26.60;42.70;;;;;;5009202;28;19909;-91
2022/08/19 12:24:22;;;;;;;;;;;26.50;42.90;;;;;;4992384;28;19913;-91
2022/08/19 12:26:48;;;;;;;;;;;26.50;43.10;;;;;;5015072;28;19939;-92
2022/08/19 12:29:16;;;;;;;;;;;26.50;43.50;;;;;;5017652;28;19968;-93
2022/08/19 12:31:43;;;;;;;;;;;26.50;43.80;;;;;;5012111;28;19951;-93
2022/08/19 12:34:10;;;;;;;;;;;26.50;44.10;;;;;;4990526;28;19909;-92
2022/08/19 12:36:35;;;;;;;;;;;26.50;44.30;;;;;;4990942;28;19910;-91
2022/08/19 12:39:04;;;;;;;;;;;26.40;44.30;;;;;;4992388;28;19953;-88
2022/08/19 12:41:29;;;;;;;;;;;26.40;44.40;;;;;;4993548;28;19910;-92
2022/08/19 12:43:58;;;;;;;;;;;26.40;44.90;;;;;;5005320;28;20013;-90
2022/08/19 12:46:26;;;;;;;;;;;26.50;44.60;;;;;;5001013;28;19914;-92
2022/08/19 12:48:54;;;;;;;;;;;26.60;44.70;;;;;;4985715;28;19945;-91
2022/08/19 12:51:19;;;;;;;;;;;26.60;44.70;;;;;;5002696;28;20378;-93
2022/08/19 12:53:46;;;;;;;;;;;26.70;44.90;;;;;;5002944;28;19946;-91
2022/08/19 12:56:14;;;;;;;;;;;26.70;45.40;;;;;;5005670;28;19920;-92
2022/08/19 12:58:41;;;;;;;;;;;26.70;44.80;;;;;;5015004;28;19921;-91
2022/08/19 13:01:08;;;;;;;;;;;26.60;44.70;;;;;;5013221;28;19916;-91
2022/08/19 13:03:34;;;;;;;;;;;26.60;45.10;;;;;;5031302;28;19905;-91
2022/08/19 13:06:00;;;;;;;;;;;26.60;45.70;;;;;;5020972;28;19917;-91
2022/08/19 13:08:26;;;;;;;;;;;26.50;45.10;;;;;;5025420;28;19923;-93
2022/08/19 13:10:53;;;;;;;;;;;26.50;45.10;;;;;;5003468;28;19960;-91
2022/08/19 13:13:19;;;;;;;;;;;26.60;45.10;;;;;;5011741;28;20021;-91
2022/08/19 13:15:45;;;;;;;;;;;26.70;45.10;;;;;;5017915;28;19905;-90
2022/08/19 13:18:12;;;;;;;;;;;26.90;45.10;;;;;;5010636;28;19999;-88
2022/08/19 13:20:40;;;;;;;;;;;27.10;44.60;;;;;;5037418;28;19912;-89
2022/08/19 13:23:06;;;;;;;;;;;27.10;45.20;;;;;;5036995;28;19929;-91
2022/08/19 13:25:33;;;;;;;;;;;27.00;44.40;;;;;;5033855;28;19917;-92
2022/08/19 13:27:59;;;;;;;;;;;26.90;44.60;;;;;;5023577;28;19920;-90
2022/08/19 13:33:16;;;;;;;;;;;26.80;44.80;;;;;;5030457;28;19924;-91
2022/08/19 13:35:57;;;;;;;;;;;26.80;44.80;;;;;;5025775;28;19913;-93
2022/08/19 13:38:23;;;;;;;;;;;26.70;44.80;;;;;;5025401;28;19913;-92
2022/08/19 13:40:50;;;;;;;;;;;26.70;45.00;;;;;;5009237;28;19948;-90
2022/08/19 13:43:17;;;;;;;;;;;26.60;45.10;;;;;;5031949;28;19973;-92
2022/08/19 13:45:42;;;;;;;;;;;26.60;45.10;;;;;;5046436;28;19916;-90
2022/08/19 13:48:08;;;;;;;;;;;26.60;45.20;;;;;;5013094;28;19905;-90
2022/08/19 13:50:47;;;;;;;;;;;26.50;45.40;;;;;;5008422;28;19905;-90
2022/08/19 13:53:12;;;;;;;;;;;26.50;45.60;;;;;;5007809;28;19912;-92
2022/08/19 13:55:39;;;;;;;;;;;26.50;45.60;;;;;;5007747;28;19941;-95
2022/08/19 13:58:05;;;;;;;;;;;26.40;45.70;;;;;;5005505;28;20271;-90
2022/08/19 14:00:35;;;;;;;;;;;26.40;45.70;;;;;;5029636;28;19905;-91
2022/08/19 14:03:02;;;;;;;;;;;26.40;45.90;;;;;;5017333;28;19906;-91
2022/08/19 14:05:29;;;;;;;;;;;26.30;45.80;;;;;;5034300;28;19917;-91
2022/08/19 14:07:56;;;;;;;;;;;26.30;45.90;;;;;;5007327;28;19913;-91
2022/08/19 14:10:23;;;;;;;;;;;26.30;46.00;;;;;;5027784;28;19911;-89
2022/08/19 14:12:52;;;;;;;;;;;26.40;46.20;;;;;;4992223;28;19906;-90
2022/08/19 14:15:18;;;;;;;;;;;26.40;46.10;;;;;;5009856;28;19960;-92
2022/08/19 14:17:46;;;;;;;;;;;26.40;46.20;;;;;;5012222;28;19909;-92
2022/08/19 14:20:12;;;;;;;;;;;26.40;46.20;;;;;;5023907;28;19905;-93
2022/08/19 14:22:40;;;;;;;;;;;26.40;46.20;;;;;;5023936;28;19941;-91
2022/08/19 14:25:09;;;;;;;;;;;26.50;46.30;;;;;;5033383;28;20289;-91
2022/08/19 14:27:36;;;;;;;;;;;26.60;46.30;;;;;;5017788;28;19914;-94
2022/08/19 14:30:03;;;;;;;;;;;26.60;46.10;;;;;;5005987;28;19905;-89
2022/08/19 14:32:29;;;;;;;;;;;26.70;46.20;;;;;;5025729;28;19941;-90
2022/08/19 14:34:55;;;;;;;;;;;26.70;46.20;;;;;;5029262;28;20011;-89
2022/08/19 14:37:21;;;;;;;;;;;26.70;46.20;;;;;;5033612;28;19928;-91
2022/08/19 14:39:48;;;;;;;;;;;26.60;46.20;;;;;;5028956;28;19905;-90
2022/08/19 14:42:14;;;;;;;;;;;26.60;46.30;;;;;;5031501;28;19937;-91